Time;durP1;ratioP1;P1;durP2;ratioP2;P2;SDS_P1;SDS_P2;PMS_P1;PMS_P2;Temp;Humidity;BMP_temperature;BMP_pressure;BME280_temperature;BME280_humidity;BME280_pressure;Samples;Min_cycle;Max_cycle;Signal;HPM_P1;HPM_P2
2023/08/07 00:19:10;;;;;;;;;;;;;;;;;;;;;
2023/08/07 00:28:38;;;;;;;;;;;;;;;;;;;;;
2023/08/07 03:00:16;;;;;;;;;;;;;;;;;;;;;
2023/08/07 03:06:06;;;;;;;1.83;0.50;;;;;;;;;;6138751;23;20080;-81
2023/08/07 03:08:54;;;;;;;;;;;;;;;;;;6150923;23;20013;-81
2023/08/07 03:12:04;;;;;;;;;;;;;;;;;;;;;
2023/08/07 03:35:47;;;;;;;;;;;;;;;;;;;;;
2023/08/07 03:41:39;;;;;;;3.97;0.68;;;;;;;;;;6147433;23;20044;-81
2023/08/07 03:50:45;;;;;;;5.18;0.60;;;;;;;;;;6127464;23;20075;-81
2023/08/07 03:53:47;;;;;;;;;;;;;;;;;;;;;
2023/08/07 03:56:35;;;;;;;;;;;;;;;;;;;;;
2023/08/07 03:59:41;;;;;;;1.27;0.43;;;;;;;;;;5976302;24;20043;-81
2023/08/07 04:08:46;;;;;;;3.60;0.60;;;;;;;;;;6032725;23;20338;-80
2023/08/07 04:18:06;;;;;;;;;;;;;;;;;;;;;
2023/08/07 04:25:28;;;;;;;;;;;;;;;;;;;;;
2023/08/07 04:27:42;;;;;;;;;;;;;;;;;;;;;
2023/08/07 05:46:43;;;;;;;0.63;0.20;;;;;;;;;;6181563;22;20030;-82
2023/08/07 05:49:09;;;;;;;2.83;0.40;;;;;;;;;;6149548;23;20020;-82
2023/08/07 05:51:48;;;;;;;3.92;0.60;;;;;;;;;;6149901;23;20758;-81
2023/08/07 05:54:20;;;;;;;1.45;0.40;;;;;;;;;;6149436;23;20086;-82
2023/08/07 05:56:51;;;;;;;1.40;0.40;;;;;;;;;;6149305;23;20021;-81
2023/08/07 05:59:34;;;;;;;;;;;;;;;;;;;;;
2023/08/07 06:02:11;;;;;;;;;;;;;;;;;;;;;
2023/08/07 06:05:16;;;;;;;6.65;1.40;;;;;;;;;;6151795;23;20100;-82
2023/08/07 06:07:54;;;;;;;2.60;1.20;;;;;;;;;;6149958;23;20017;-82
2023/08/07 06:10:30;;;;;;;3.38;0.30;;;;;;;;;;6150477;23;20021;-82
2023/08/07 06:13:13;;;;;;;2.38;0.50;;;;;;;;;;6149460;23;20342;-82
2023/08/07 06:15:53;;;;;;;4.68;0.50;;;;;;;;;;6149045;23;20057;-82
2023/08/07 06:18:58;;;;;;;3.53;0.60;;;;;;;;;;6148271;23;20005;-82
2023/08/07 06:21:46;;;;;;;1.83;0.30;;;;;;;;;;6151999;23;20424;-82
2023/08/07 06:24:25;;;;;;;1.17;0.30;;;;;;;;;;6148633;23;20024;-82
2023/08/07 06:30:07;;;;;;;2.47;0.30;;;;;;;;;;6089254;23;20018;-82
2023/08/07 06:33:14;;;;;;;2.90;0.40;;;;;;;;;;6141965;23;20425;-82
2023/08/07 06:41:33;;;;;;;2.33;0.50;;;;;;;;;;6149431;23;20029;-83
2023/08/07 06:44:19;;;;;;;1.77;0.40;;;;;;;;;;6139899;23;20447;-82
2023/08/07 06:46:56;;;;;;;3.17;0.80;;;;;;;;;;6149992;23;20017;-83
2023/08/07 06:49:36;;;;;;;1.20;0.55;;;;;;;;;;6162412;23;20478;-83
2023/08/07 06:52:14;;;;;;;2.13;0.57;;;;;;;;;;6179510;23;20021;-83
2023/08/07 06:54:43;;;;;;;0.82;0.35;;;;;;;;;;6178939;23;20079;-82
2023/08/07 07:00:00;;;;;;;0.88;0.30;;;;;;;;;;6181293;23;20348;-82
2023/08/07 07:02:32;;;;;;;1.70;0.40;;;;;;;;;;6179821;23;20009;-82
2023/08/07 07:04:58;;;;;;;1.67;0.40;;;;;;;;;;6179123;23;20349;-82
2023/08/07 07:07:27;;;;;;;1.83;0.45;;;;;;;;;;6181742;23;20015;-82
2023/08/07 07:09:57;;;;;;;0.57;0.30;;;;;;;;;;6178943;23;20013;-82
2023/08/07 07:12:40;;;;;;;0.82;0.28;;;;;;;;;;6179498;23;20069;-82
2023/08/07 07:15:10;;;;;;;1.30;0.30;;;;;;;;;;6178888;23;20448;-82
2023/08/07 07:17:45;;;;;;;3.13;0.60;;;;;;;;;;6179562;23;20444;-82
2023/08/07 07:20:12;;;;;;;1.27;0.22;;;;;;;;;;6178113;23;20053;-82
2023/08/07 07:22:53;;;;;;;1.77;0.50;;;;;;;;;;6179434;23;20013;-82
2023/08/07 07:25:20;;;;;;;0.85;0.40;;;;;;;;;;6180423;23;20095;-82
2023/08/07 07:27:50;;;;;;;2.22;0.30;;;;;;;;;;6181380;23;20013;-82
2023/08/07 07:30:21;;;;;;;1.08;0.30;;;;;;;;;;6178265;23;20009;-83
2023/08/07 07:32:56;;;;;;;1.48;0.28;;;;;;;;;;6179330;23;20040;-82
2023/08/07 07:35:26;;;;;;;1.98;0.40;;;;;;;;;;6179280;23;20455;-82
2023/08/07 07:37:52;;;;;;;1.00;0.28;;;;;;;;;;6183083;23;20009;-82
2023/08/07 07:40:20;;;;;;;1.77;0.30;;;;;;;;;;6182644;23;20067;-82
2023/08/07 07:42:49;;;;;;;2.22;0.25;;;;;;;;;;6180981;23;20044;-82
2023/08/07 07:45:20;;;;;;;0.80;0.40;;;;;;;;;;6181256;23;20117;-82
2023/08/07 07:47:46;;;;;;;1.00;0.37;;;;;;;;;;6183303;23;20016;-82
2023/08/07 07:50:18;;;;;;;0.60;0.20;;;;;;;;;;6181193;23;20024;-82
2023/08/07 07:52:57;;;;;;;2.10;0.30;;;;;;;;;;6182034;23;20001;-82
2023/08/07 07:55:39;;;;;;;1.33;0.30;;;;;;;;;;6180747;23;20013;-82
2023/08/07 07:58:08;;;;;;;0.45;0.28;;;;;;;;;;6180762;23;20033;-82
2023/08/07 08:00:43;;;;;;;1.50;0.30;;;;;;;;;;6181966;23;20005;-82
2023/08/07 08:03:09;;;;;;;2.15;0.30;;;;;;;;;;6180428;23;20017;-82
2023/08/07 08:06:13;;;;;;;2.30;0.82;;;;;;;;;;6178521;23;20437;-82
2023/08/07 08:08:41;;;;;;;1.38;0.38;;;;;;;;;;6180784;23;20348;-82
2023/08/07 08:11:08;;;;;;;1.92;0.40;;;;;;;;;;6180161;23;20043;-82
2023/08/07 08:13:38;;;;;;;3.63;0.38;;;;;;;;;;6182684;23;20055;-82
2023/08/07 08:16:11;;;;;;;1.33;0.30;;;;;;;;;;6179776;23;20009;-82
2023/08/07 08:19:03;;;;;;;2.67;0.28;;;;;;;;;;6180389;23;20013;-82
2023/08/07 08:21:45;;;;;;;0.55;0.20;;;;;;;;;;6182188;23;20040;-83
2023/08/07 08:24:38;;;;;;;0.73;0.20;;;;;;;;;;6180250;23;20025;-82
2023/08/07 08:29:52;;;;;;;;;;;;;;;;;;;;;
2023/08/07 08:36:02;;;;;;;0.98;0.30;;;;;;;;;;6166608;23;20009;-83
2023/08/07 08:39:00;;;;;;;1.67;0.30;;;;;;;;;;6154116;23;20048;-83
2023/08/07 08:41:47;;;;;;;1.67;0.68;;;;;;;;;;6154784;23;20021;-83
2023/08/07 08:44:35;;;;;;;0.95;0.30;;;;;;;;;;6155107;23;20016;-83
2023/08/07 08:47:22;;;;;;;1.67;0.30;;;;;;;;;;6155627;23;20380;-83
2023/08/07 08:53:23;;;;;;;1.80;0.30;;;;;;;;;;6033596;23;20018;-83
2023/08/07 08:56:23;;;;;;;;;;;;;;;;;;;;;
2023/08/07 08:59:21;;;;;;;;;;;;;;;;;;;;;
2023/08/07 09:04:22;;;;;;;1.35;0.45;;;;;;;;;;6118507;23;20450;-82
2023/08/07 09:10:14;;;;;;;1.42;0.45;;;;;;;;;;5975821;24;20027;-83
2023/08/07 09:16:04;;;;;;;1.52;0.50;;;;;;;;;;6039019;23;20094;-83
2023/08/07 09:18:43;;;;;;;2.95;0.30;;;;;;;;;;6031724;23;20047;-83
2023/08/07 09:25:05;;;;;;;1.77;0.40;;;;;;;;;;6010180;23;20347;-83
2023/08/07 09:33:48;;;;;;;3.45;0.50;;;;;;;;;;6027180;23;20019;-83
2023/08/07 09:36:39;;;;;;;1.95;0.50;;;;;;;;;;6003545;23;20019;-83
2023/08/07 09:48:44;;;;;;;1.90;0.30;;;;;;;;;;5975536;24;20015;-82
2023/08/07 09:51:21;;;;;;;1.40;0.40;;;;;;;;;;5975695;24;20073;-83
2023/08/07 09:54:13;;;;;;;0.60;0.30;;;;;;;;;;5979007;23;20044;-83
2023/08/07 09:56:50;;;;;;;1.92;0.50;;;;;;;;;;6036755;23;20118;-83
2023/08/07 09:59:40;;;;;;;1.48;0.50;;;;;;;;;;6030927;23;20015;-83
2023/08/07 10:02:20;;;;;;;1.05;0.40;;;;;;;;;;6065431;23;20014;-83
2023/08/07 10:04:57;;;;;;;0.88;0.40;;;;;;;;;;6088839;23;20026;-83
2023/08/07 10:07:49;;;;;;;2.20;0.50;;;;;;;;;;6089897;23;20453;-83
2023/08/07 10:10:47;;;;;;;0.90;0.30;;;;;;;;;;5979371;23;20448;-84
2023/08/07 10:16:47;;;;;;;0.68;0.40;;;;;;;;;;6089400;23;20505;-84
2023/08/07 10:19:33;;;;;;;1.73;0.40;;;;;;;;;;6089092;23;20018;-83
2023/08/07 10:22:41;;;;;;;;;;;;;;;;;;;;;
2023/08/07 10:25:42;;;;;;;1.13;0.30;;;;;;;;;;6089153;23;20097;-84
2023/08/07 10:28:26;;;;;;;1.27;0.38;;;;;;;;;;6088757;23;20681;-83
2023/08/07 10:48:34;;;;;;;;;;;;;;;;;;;;;
2023/08/07 10:51:25;;;;;;;1.20;0.30;;;;;;;;;;6121326;23;20028;-83
2023/08/07 10:54:19;;;;;;;1.73;0.35;;;;;;;;;;6095185;23;20376;-83
2023/08/07 10:57:13;;;;;;;1.40;0.40;;;;;;;;;;6095249;23;20071;-83
2023/08/07 11:03:14;;;;;;;0.55;0.30;;;;;;;;;;6121546;23;20021;-83
2023/08/07 11:05:45;;;;;;;2.00;0.40;;;;;;;;;;6095535;23;20049;-83
2023/08/07 11:08:14;;;;;;;1.45;0.40;;;;;;;;;;6094665;23;20771;-83
2023/08/07 11:11:10;;;;;;;;;;;;;;;;;;;;;
2023/08/07 11:14:15;;;;;;;;;;;;;;;;;;;;;
2023/08/07 11:16:52;;;;;;;;;;;;;;;;;;;;;
2023/08/07 11:20:20;;;;;;;1.40;0.30;;;;;;;;;;6108858;23;20089;-83
2023/08/07 11:28:54;;;;;;;2.70;0.40;;;;;;;;;;5976703;24;20019;-83
2023/08/07 11:31:50;;;;;;;0.95;0.30;;;;;;;;;;5952722;24;20397;-83
2023/08/07 11:34:39;;;;;;;0.85;0.30;;;;;;;;;;6074075;23;20018;-82
2023/08/07 11:37:20;;;;;;;1.20;0.38;;;;;;;;;;6095950;23;20020;-83
2023/08/07 11:39:57;;;;;;;1.10;0.40;;;;;;;;;;6097191;23;20018;-83
2023/08/07 11:42:40;;;;;;;0.55;0.20;;;;;;;;;;6096543;23;20029;-83
2023/08/07 11:45:11;;;;;;;1.33;0.40;;;;;;;;;;6061253;23;20023;-83
2023/08/07 11:47:59;;;;;;;;;;;;;;;;;;6062386;23;20459;-83
2023/08/07 11:50:31;;;;;;;2.38;0.38;;;;;;;;;;6061169;23;19905;-82
2023/08/07 11:53:13;;;;;;;1.55;0.20;;;;;;;;;;6060611;23;20039;-83
2023/08/07 11:55:59;;;;;;;;;;;;;;;;;;;;;
2023/08/07 11:58:37;;;;;;;6.60;0.45;;;;;;;;;;6062540;23;20086;-83
2023/08/07 12:01:20;;;;;;;0.75;0.30;;;;;;;;;;6061845;23;20022;-82
2023/08/07 12:04:25;;;;;;;1.33;0.30;;;;;;;;;;6062331;23;20015;-83
2023/08/07 12:06:54;;;;;;;0.98;0.40;;;;;;;;;;6061028;23;20022;-83
2023/08/07 12:09:29;;;;;;;0.82;0.30;;;;;;;;;;6060171;23;20117;-83
2023/08/07 12:12:01;;;;;;;1.17;0.40;;;;;;;;;;6060935;23;20029;-83
2023/08/07 12:14:38;;;;;;;0.50;0.20;;;;;;;;;;6032031;23;20098;-82
2023/08/07 12:17:07;;;;;;;0.63;0.30;;;;;;;;;;6009007;23;20015;-83
2023/08/07 12:20:01;;;;;;;1.83;0.30;;;;;;;;;;6009034;23;20011;-83
2023/08/07 12:23:15;;;;;;;;;;;;;;;;;;;;;
2023/08/07 12:26:02;;;;;;;2.17;0.45;;;;;;;;;;5975873;24;20107;-82
2023/08/07 12:29:00;;;;;;;2.75;0.50;;;;;;;;;;5952408;24;20051;-83
2023/08/07 12:31:28;;;;;;;1.10;0.30;;;;;;;;;;5951994;24;20060;-83
2023/08/07 12:37:17;;;;;;;0.50;0.20;;;;;;;;;;5976508;24;20014;-83
2023/08/07 12:42:59;;;;;;;;;;;;;;;;;;;;;
2023/08/07 12:45:46;;;;;;;0.70;0.30;;;;;;;;;;6089948;23;20513;-82
2023/08/07 12:48:21;;;;;;;1.42;0.30;;;;;;;;;;6122557;23;20025;-82
2023/08/07 12:50:55;;;;;;;2.50;0.30;;;;;;;;;;6122548;23;20474;-83
2023/08/07 12:53:37;;;;;;;1.13;0.57;;;;;;;;;;6095984;23;20025;-83
2023/08/07 12:56:04;;;;;;;0.90;0.30;;;;;;;;;;6096641;23;20009;-82
2023/08/07 13:01:27;;;;;;;2.20;0.30;;;;;;;;;;6122322;23;20379;-83
2023/08/07 13:07:44;;;;;;;;;;;;;;;;;;;;;
2023/08/07 13:10:33;;;;;;;;;;;;;;;;;;;;;
2023/08/07 13:13:32;;;;;;;1.40;0.30;;;;;;;;;;6118762;23;20097;-82
2023/08/07 13:19:32;;;;;;;2.05;0.40;;;;;;;;;;5975068;24;20012;-84
2023/08/07 13:25:44;;;;;;;16.60;1.27;;;;;;;;;;6030564;23;20053;-83
2023/08/07 13:28:11;;;;;;;2.30;0.50;;;;;;;;;;6032580;23;20019;-84
2023/08/07 13:30:53;;;;;;;1.45;0.40;;;;;;;;;;6008530;23;20028;-85
2023/08/07 13:36:33;;;;;;;1.25;0.30;;;;;;;;;;6032098;23;20026;-82
2023/08/07 13:39:06;;;;;;;2.80;0.30;;;;;;;;;;6030926;23;20621;-82
2023/08/07 13:42:01;;;;;;;2.10;0.52;;;;;;;;;;6083952;23;20037;-81
2023/08/07 13:44:47;;;;;;;4.32;0.40;;;;;;;;;;6148841;23;20017;-83
2023/08/07 13:50:28;;;;;;;0.95;0.38;;;;;;;;;;6029521;23;20046;-84
2023/08/07 14:05:46;;;;;;;5.28;0.68;;;;;;;;;;6182640;23;20025;-82
2023/08/07 14:08:12;;;;;;;2.78;0.50;;;;;;;;;;6181507;23;20012;-81
2023/08/07 14:10:48;;;;;;;4.82;0.40;;;;;;;;;;6180468;23;20016;-81
2023/08/07 14:13:14;;;;;;;1.25;0.40;;;;;;;;;;6154657;23;20481;-81
2023/08/07 14:15:40;;;;;;;1.25;0.30;;;;;;;;;;6154745;23;20070;-81
2023/08/07 14:18:06;;;;;;;7.53;0.60;;;;;;;;;;6181256;23;20020;-81
2023/08/07 14:20:32;;;;;;;9.23;0.40;;;;;;;;;;6181717;23;20009;-81
2023/08/07 14:22:59;;;;;;;2.22;0.40;;;;;;;;;;6153159;23;20579;-80
2023/08/07 14:25:25;;;;;;;1.25;0.35;;;;;;;;;;6154764;23;20013;-80
2023/08/07 14:27:51;;;;;;;0.75;0.22;;;;;;;;;;6153773;23;20641;-80
2023/08/07 14:30:17;;;;;;;0.82;0.30;;;;;;;;;;6180513;23;20080;-80
2023/08/07 14:32:43;;;;;;;0.80;0.20;;;;;;;;;;6153803;23;20048;-80
2023/08/07 14:35:12;;;;;;;0.50;0.30;;;;;;;;;;6181407;23;20372;-80
2023/08/07 14:37:38;;;;;;;1.45;0.45;;;;;;;;;;6177666;23;20009;-83
2023/08/07 14:40:04;;;;;;;0.82;0.30;;;;;;;;;;6178690;23;20005;-81
2023/08/07 14:42:30;;;;;;;0.85;0.30;;;;;;;;;;6180213;23;20020;-83
2023/08/07 14:45:03;;;;;;;0.95;0.20;;;;;;;;;;6180740;23;20008;-83
2023/08/07 14:47:29;;;;;;;1.80;0.38;;;;;;;;;;6179728;23;20060;-83
2023/08/07 14:49:55;;;;;;;0.70;0.30;;;;;;;;;;6153836;23;20400;-80
2023/08/07 14:52:21;;;;;;;0.95;0.30;;;;;;;;;;6153984;23;20017;-83
2023/08/07 14:55:01;;;;;;;;;;;;;;;;;;;;;
2023/08/07 14:57:30;;;;;;;1.00;0.30;;;;;;;;;;6182125;23;20100;-86
2023/08/07 14:59:59;;;;;;;1.27;0.38;;;;;;;;;;6155450;23;20721;-86
2023/08/07 15:02:31;;;;;;;0.80;0.30;;;;;;;;;;6156164;23;20016;-87
2023/08/07 15:05:11;;;;;;;0.93;0.30;;;;;;;;;;6153651;23;20116;-81
2023/08/07 15:07:37;;;;;;;0.98;0.30;;;;;;;;;;6154085;23;20444;-80
2023/08/07 15:10:03;;;;;;;0.73;0.30;;;;;;;;;;6181537;23;20076;-81
2023/08/07 15:16:38;;;;;;;;;;;;;;;;;;;;;
2023/08/07 15:18:47;;;;;;;2.28;0.50;;;;;;;;;;6045988;23;20035;-83
2023/08/07 15:21:13;;;;;;;0.80;0.30;;;;;;;;;;6058831;23;20022;-81
2023/08/07 15:24:27;;;;;;;0.95;0.28;;;;;;;;;;6060978;23;20094;-84
2023/08/07 15:26:53;;;;;;;2.72;0.30;;;;;;;;;;6032145;23;20025;-82
2023/08/07 15:29:24;;;;;;;9.93;0.50;;;;;;;;;;6119116;23;20006;-83
2023/08/07 15:31:50;;;;;;;3.63;0.37;;;;;;;;;;6128029;23;20136;-83
2023/08/07 15:34:16;;;;;;;0.77;0.20;;;;;;;;;;6155360;23;20005;-83
2023/08/07 15:37:14;;;;;;;2.95;0.40;;;;;;;;;;6154758;23;20028;-83
2023/08/07 15:39:40;;;;;;;1.20;0.38;;;;;;;;;;6153400;23;20024;-83
2023/08/07 15:42:16;;;;;;;1.23;0.38;;;;;;;;;;6180047;23;20005;-83
2023/08/07 15:44:42;;;;;;;1.38;0.40;;;;;;;;;;6153216;23;20009;-83
2023/08/07 15:47:10;;;;;;;0.65;0.20;;;;;;;;;;6154136;23;20033;-83
2023/08/07 15:49:42;;;;;;;1.13;0.40;;;;;;;;;;6153849;23;20738;-83
2023/08/07 15:52:11;;;;;;;2.95;0.40;;;;;;;;;;6180709;23;20060;-83
2023/08/07 15:54:37;;;;;;;0.45;0.20;;;;;;;;;;6179623;23;20005;-84
2023/08/07 15:57:06;;;;;;;0.82;0.30;;;;;;;;;;6155668;23;20832;-81
2023/08/07 15:59:32;;;;;;;0.73;0.32;;;;;;;;;;6182959;23;20009;-83
2023/08/07 16:02:04;;;;;;;0.35;0.20;;;;;;;;;;6155096;23;20013;-81
2023/08/07 16:04:30;;;;;;;2.35;0.25;;;;;;;;;;6154138;23;20958;-83
2023/08/07 16:07:01;;;;;;;0.85;0.25;;;;;;;;;;6154700;23;20105;-83
2023/08/07 17:06:06;;;;;;;1.08;0.38;;;;;;;;;;6130148;23;20024;-81
2023/08/07 17:11:30;;;;;;;0.60;0.28;;;;;;;;;;6185868;22;20033;-88
2023/08/07 17:13:56;;;;;;;3.22;0.40;;;;;;;;;;6182052;23;20012;-82
2023/08/07 17:16:22;;;;;;;1.38;0.60;;;;;;;;;;6182603;23;20005;-81
2023/08/07 17:19:21;;;;;;;0.90;0.30;;;;;;;;;;6182001;23;20004;-82
2023/08/07 17:21:47;;;;;;;1.17;0.30;;;;;;;;;;6077036;23;20028;-81
2023/08/07 17:24:12;;;;;;;1.23;0.40;;;;;;;;;;6181224;23;20329;-81
2023/08/07 17:26:39;;;;;;;1.85;0.52;;;;;;;;;;6182159;23;20013;-84
2023/08/07 17:29:05;;;;;;;1.23;0.40;;;;;;;;;;6155177;23;20131;-84
2023/08/07 17:31:30;;;;;;;1.05;0.50;;;;;;;;;;6179046;23;20017;-82
2023/08/07 17:33:57;;;;;;;3.55;0.30;;;;;;;;;;6181703;23;20505;-81
2023/08/07 17:36:23;;;;;;;2.05;0.43;;;;;;;;;;6179424;23;20337;-82
2023/08/07 17:38:49;;;;;;;0.70;0.30;;;;;;;;;;6181655;23;20051;-82
2023/08/07 17:41:15;;;;;;;0.88;0.38;;;;;;;;;;6178792;23;20013;-81
2023/08/07 17:43:41;;;;;;;2.17;0.40;;;;;;;;;;6180648;23;20016;-81
2023/08/07 17:46:07;;;;;;;1.67;0.40;;;;;;;;;;6181974;23;20013;-82
2023/08/07 17:48:33;;;;;;;1.10;0.40;;;;;;;;;;6180063;23;20012;-83
2023/08/07 17:50:59;;;;;;;2.13;0.40;;;;;;;;;;6182592;23;20409;-83
2023/08/07 17:53:26;;;;;;;1.40;0.40;;;;;;;;;;6182626;23;20040;-82
2023/08/07 17:55:52;;;;;;;1.85;0.52;;;;;;;;;;6180200;23;20799;-82
2023/08/07 17:58:20;;;;;;;2.08;0.70;;;;;;;;;;6182269;23;20433;-82
2023/08/07 18:00:46;;;;;;;1.55;0.50;;;;;;;;;;6180600;23;20017;-83
2023/08/07 18:03:14;;;;;;;1.85;0.40;;;;;;;;;;6180606;23;20020;-84
2023/08/07 18:05:41;;;;;;;1.95;0.40;;;;;;;;;;6180647;23;20017;-83
2023/08/07 18:08:07;;;;;;;2.80;0.52;;;;;;;;;;6155433;23;20013;-83
2023/08/07 18:10:33;;;;;;;0.63;0.30;;;;;;;;;;6180261;23;20019;-82
2023/08/07 18:12:59;;;;;;;1.73;0.50;;;;;;;;;;6182440;23;20021;-83
2023/08/07 18:15:25;;;;;;;1.58;0.55;;;;;;;;;;6180603;23;20016;-82
2023/08/07 18:17:51;;;;;;;2.22;0.52;;;;;;;;;;6180183;23;20546;-82
2023/08/07 18:20:18;;;;;;;0.93;0.55;;;;;;;;;;6181017;23;20009;-82
2023/08/07 18:22:44;;;;;;;1.50;0.50;;;;;;;;;;6181888;23;20005;-82
2023/08/07 18:25:10;;;;;;;1.83;0.60;;;;;;;;;;6181599;23;20196;-81
2023/08/07 18:27:36;;;;;;;1.35;0.50;;;;;;;;;;6181045;23;20021;-81
2023/08/07 18:30:04;;;;;;;1.25;0.40;;;;;;;;;;6179403;23;20009;-81
2023/08/07 18:32:30;;;;;;;1.23;0.40;;;;;;;;;;6181061;23;20009;-81
2023/08/07 18:34:57;;;;;;;1.42;0.30;;;;;;;;;;6180460;23;20020;-82
2023/08/07 18:37:23;;;;;;;4.28;0.50;;;;;;;;;;6179217;23;20105;-82
2023/08/07 18:39:49;;;;;;;1.40;0.50;;;;;;;;;;6176751;23;20006;-82
2023/08/07 18:42:15;;;;;;;0.90;0.47;;;;;;;;;;6180277;23;20009;-80
2023/08/07 18:44:41;;;;;;;3.15;0.52;;;;;;;;;;6178742;23;20753;-81
2023/08/07 18:47:07;;;;;;;3.50;0.50;;;;;;;;;;6179060;23;20025;-81
2023/08/07 19:22:25;;;;;;;2.25;0.43;;;;;;;;;;6203424;22;20069;-84
2023/08/07 19:24:57;;;;;;;1.73;0.50;;;;;;;;;;6184626;23;20020;-83
2023/08/07 19:37:40;;;;;;;;;;;;;;;;;;;;;
2023/08/07 19:46:04;;;;;;;1.33;0.40;;;;;;;;;;6126103;23;20414;-82
2023/08/07 19:48:54;;;;;;;7.55;0.73;;;;;;;;;;6181625;23;20043;-82
2023/08/07 19:51:57;;;;;;;2.90;0.63;;;;;;;;;;6119686;23;20073;-83
2023/08/07 19:54:50;;;;;;;3.83;0.60;;;;;;;;;;6089502;23;20075;-80
2023/08/07 19:57:38;;;;;;;;;;;;;;;;;;;;;
2023/08/07 20:00:19;;;;;;;1.60;0.43;;;;;;;;;;6033124;23;20807;-81
2023/08/07 22:22:43;;;;;;;;;;;;;;;;;;;;;
